Time;durP1;ratioP1;P1;durP2;ratioP2;P2;SDS_P1;SDS_P2;PMS_P1;PMS_P2;Temp;Humidity;BMP_temperature;BMP_pressure;BME280_temperature;BME280_humidity;BME280_pressure;Samples;Min_cycle;Max_cycle;Signal;HPM_P1;HPM_P2
2023/08/04 00:00:34;;;;;;;;;;;29.00;52.70;;;;;;5033057;27;89419;-53
2023/08/04 00:03:00;;;;;;;;;;;28.90;52.70;;;;;;5036501;28;87235;-55
2023/08/04 00:05:26;;;;;;;;;;;28.90;52.60;;;;;;5032773;28;88411;-58
2023/08/04 00:07:51;;;;;;;;;;;28.90;52.70;;;;;;5033678;28;88084;-51
2023/08/04 00:10:17;;;;;;;;;;;28.90;52.70;;;;;;5035321;28;87704;-57
2023/08/04 00:12:42;;;;;;;;;;;28.80;52.60;;;;;;5033831;28;87371;-56
2023/08/04 00:15:08;;;;;;;;;;;28.90;52.80;;;;;;5035994;28;87155;-55
2023/08/04 00:17:35;;;;;;;;;;;28.90;52.80;;;;;;5037368;28;87108;-55
2023/08/04 00:20:01;;;;;;;;;;;28.80;52.70;;;;;;5033401;28;89228;-59
2023/08/04 00:22:26;;;;;;;;;;;28.80;52.80;;;;;;5029923;28;88136;-54
2023/08/04 00:24:52;;;;;;;;;;;28.80;52.70;;;;;;5032903;28;89156;-58
2023/08/04 00:27:18;;;;;;;;;;;28.80;52.70;;;;;;5035258;28;89158;-56
2023/08/04 00:29:43;;;;;;;;;;;28.80;52.70;;;;;;5030934;28;87203;-55
2023/08/04 00:32:09;;;;;;;;;;;28.80;52.70;;;;;;5032299;28;87715;-53
2023/08/04 00:34:34;;;;;;;;;;;28.80;52.70;;;;;;5032356;28;87618;-59
2023/08/04 00:37:00;;;;;;;;;;;28.80;52.70;;;;;;5034601;28;87181;-58
2023/08/04 00:39:25;;;;;;;;;;;28.70;52.70;;;;;;5037514;28;87558;-56
2023/08/04 00:41:51;;;;;;;;;;;28.80;52.80;;;;;;5033506;28;86964;-56
2023/08/04 00:44:16;;;;;;;;;;;28.70;52.80;;;;;;5033546;28;87406;-54
2023/08/04 00:46:42;;;;;;;;;;;28.70;52.80;;;;;;5035402;28;90369;-55
2023/08/04 00:49:07;;;;;;;;;;;28.70;52.80;;;;;;5031445;28;87228;-54
2023/08/04 00:51:33;;;;;;;;;;;28.70;52.80;;;;;;5035564;28;87685;-55
2023/08/04 00:53:59;;;;;;;;;;;28.70;52.80;;;;;;5033675;28;88047;-53
2023/08/04 00:56:26;;;;;;;;;;;28.70;52.80;;;;;;5031752;28;87203;-56
2023/08/04 00:58:51;;;;;;;;;;;28.70;52.80;;;;;;5034778;28;87435;-56
2023/08/04 01:01:16;;;;;;;;;;;28.60;52.70;;;;;;5033694;28;88187;-56
2023/08/04 01:03:42;;;;;;;;;;;28.60;52.70;;;;;;5033451;28;87305;-54
2023/08/04 01:06:16;;;;;;;;;;;28.60;52.80;;;;;;5033382;28;87709;-53
2023/08/04 01:08:45;;;;;;;;;;;28.60;52.70;;;;;;5030252;28;87684;-57
2023/08/04 01:11:13;;;;;;;;;;;28.60;52.80;;;;;;5033810;28;88020;-56
2023/08/04 01:13:39;;;;;;;;;;;28.60;52.80;;;;;;5032399;28;88136;-55
2023/08/04 01:16:06;;;;;;;;;;;28.60;52.80;;;;;;5033628;28;88170;-55
2023/08/04 01:18:32;;;;;;;;;;;28.60;52.90;;;;;;5033629;28;87453;-60
2023/08/04 01:21:02;;;;;;;;;;;28.50;52.80;;;;;;5032306;28;88611;-56
2023/08/04 01:23:28;;;;;;;;;;;28.50;52.80;;;;;;5036214;28;87123;-57
2023/08/04 01:25:53;;;;;;;;;;;28.50;52.80;;;;;;5030936;28;90883;-53
2023/08/04 01:28:19;;;;;;;;;;;28.50;52.80;;;;;;5033614;28;86309;-55
2023/08/04 01:30:46;;;;;;;;;;;28.50;52.90;;;;;;5031599;28;87032;-58
2023/08/04 01:33:13;;;;;;;;;;;28.50;52.80;;;;;;5033561;28;87753;-57
2023/08/04 01:35:39;;;;;;;;;;;28.40;52.80;;;;;;5030927;28;88255;-51
2023/08/04 01:38:04;;;;;;;;;;;28.40;52.80;;;;;;5034658;28;88434;-56
2023/08/04 01:40:30;;;;;;;;;;;28.40;52.80;;;;;;5030002;28;88269;-56
2023/08/04 01:42:55;;;;;;;;;;;28.40;52.90;;;;;;5034517;28;87339;-54
2023/08/04 01:45:21;;;;;;;;;;;28.40;52.80;;;;;;5036253;28;87474;-56
2023/08/04 01:47:47;;;;;;;;;;;28.40;52.80;;;;;;5032177;28;87194;-54
2023/08/04 01:50:12;;;;;;;;;;;28.40;52.80;;;;;;5032058;28;87432;-50
2023/08/04 01:52:38;;;;;;;;;;;28.40;52.80;;;;;;5033045;28;87982;-52
2023/08/04 01:55:04;;;;;;;;;;;28.30;52.80;;;;;;5029473;28;87171;-56
2023/08/04 01:57:29;;;;;;;;;;;28.30;52.80;;;;;;5031620;28;87348;-55
2023/08/04 01:59:55;;;;;;;;;;;28.30;52.80;;;;;;5032534;28;88261;-60
2023/08/04 02:02:20;;;;;;;;;;;28.30;52.80;;;;;;5031840;28;87091;-58
2023/08/04 02:04:46;;;;;;;;;;;28.30;52.70;;;;;;5033220;28;87659;-55
2023/08/04 02:07:11;;;;;;;;;;;28.30;52.80;;;;;;5033685;28;87241;-56
2023/08/04 02:09:36;;;;;;;;;;;28.30;52.90;;;;;;5031641;28;87506;-55
2023/08/04 02:12:02;;;;;;;;;;;28.20;53.50;;;;;;5031409;28;87359;-57
2023/08/04 02:14:28;;;;;;;;;;;28.20;52.80;;;;;;5032212;28;87111;-54
2023/08/04 02:16:53;;;;;;;;;;;28.20;52.90;;;;;;5031402;28;87420;-54
2023/08/04 02:19:20;;;;;;;;;;;28.20;52.80;;;;;;5032396;28;88028;-52
2023/08/04 02:21:46;;;;;;;;;;;28.20;52.90;;;;;;5030900;28;87171;-58
2023/08/04 02:24:11;;;;;;;;;;;28.20;52.90;;;;;;5029362;28;88079;-57
2023/08/04 02:26:37;;;;;;;;;;;28.20;52.80;;;;;;5033007;28;88076;-55
2023/08/04 02:29:02;;;;;;;;;;;28.20;52.90;;;;;;5033197;28;88051;-55
2023/08/04 02:31:28;;;;;;;;;;;28.10;52.90;;;;;;5028317;27;88225;-51
2023/08/04 02:33:54;;;;;;;;;;;28.10;52.90;;;;;;5033329;28;87147;-50
2023/08/04 02:36:20;;;;;;;;;;;28.10;52.90;;;;;;5030590;28;88595;-52
2023/08/04 02:38:45;;;;;;;;;;;28.10;52.90;;;;;;5031866;28;87255;-57
2023/08/04 02:41:11;;;;;;;;;;;28.10;52.90;;;;;;5033422;28;86370;-55
2023/08/04 02:43:37;;;;;;;;;;;28.10;52.90;;;;;;5032099;28;87188;-56
2023/08/04 02:46:03;;;;;;;;;;;28.10;52.90;;;;;;5032678;28;87805;-54
2023/08/04 02:48:28;;;;;;;;;;;28.00;52.90;;;;;;5032030;28;88653;-51
2023/08/04 02:51:00;;;;;;;;;;;28.00;52.80;;;;;;5030044;28;87301;-53
2023/08/04 02:53:25;;;;;;;;;;;28.00;52.90;;;;;;5032556;28;87551;-55
2023/08/04 02:55:51;;;;;;;;;;;28.00;52.90;;;;;;5029622;28;87651;-52
2023/08/04 02:58:16;;;;;;;;;;;28.00;52.90;;;;;;5033310;28;88187;-53
2023/08/04 03:00:42;;;;;;;;;;;28.00;52.90;;;;;;5030341;28;87202;-53
2023/08/04 03:03:07;;;;;;;;;;;27.90;52.90;;;;;;5028148;28;87475;-54
2023/08/04 03:05:36;;;;;;;;;;;27.90;52.80;;;;;;5032533;28;90516;-52
2023/08/04 03:08:01;;;;;;;;;;;27.90;52.90;;;;;;5030651;28;87921;-59
2023/08/04 03:10:26;;;;;;;;;;;27.90;52.90;;;;;;5032373;28;87636;-56
2023/08/04 03:12:52;;;;;;;;;;;27.90;52.90;;;;;;5034134;28;88089;-57
2023/08/04 03:15:17;;;;;;;;;;;27.90;53.00;;;;;;5034630;28;88312;-56
2023/08/04 03:17:43;;;;;;;;;;;27.90;53.00;;;;;;5035460;28;88078;-53
2023/08/04 03:20:09;;;;;;;;;;;27.90;53.00;;;;;;5033893;28;87192;-50
2023/08/04 03:22:34;;;;;;;;;;;27.80;53.00;;;;;;5035959;27;88945;-56
2023/08/04 03:25:00;;;;;;;;;;;27.80;53.00;;;;;;5035290;28;87280;-51
2023/08/04 03:27:27;;;;;;;;;;;27.80;52.90;;;;;;5033341;28;87125;-55
2023/08/04 03:29:52;;;;;;;;;;;27.80;52.90;;;;;;5036231;28;89112;-58
2023/08/04 03:32:18;;;;;;;;;;;27.80;53.00;;;;;;5034263;28;87199;-55
2023/08/04 03:34:43;;;;;;;;;;;27.70;53.00;;;;;;5035134;28;87419;-53
2023/08/04 03:37:09;;;;;;;;;;;27.70;53.00;;;;;;5033092;28;89186;-56
2023/08/04 03:39:34;;;;;;;;;;;27.70;53.00;;;;;;5034249;28;87205;-53
2023/08/04 03:42:00;;;;;;;;;;;27.70;53.00;;;;;;5035332;28;87013;-55
2023/08/04 03:44:25;;;;;;;;;;;27.70;53.00;;;;;;5034867;28;88893;-52
2023/08/04 03:46:51;;;;;;;;;;;27.70;53.00;;;;;;5032851;28;87097;-54
2023/08/04 03:49:16;;;;;;;;;;;27.70;53.00;;;;;;5032678;28;87836;-57
2023/08/04 03:51:42;;;;;;;;;;;27.70;53.10;;;;;;5035342;28;89831;-54
2023/08/04 03:54:07;;;;;;;;;;;27.70;53.10;;;;;;5036109;28;86361;-56
2023/08/04 03:56:33;;;;;;;;;;;27.60;53.00;;;;;;5035109;28;88023;-53
2023/08/04 03:58:58;;;;;;;;;;;27.60;53.00;;;;;;5033695;28;87261;-57
2023/08/04 04:01:24;;;;;;;;;;;27.60;53.00;;;;;;5032611;28;88004;-57
2023/08/04 04:03:49;;;;;;;;;;;27.60;53.00;;;;;;5031933;28;88055;-59
2023/08/04 04:06:16;;;;;;;;;;;27.60;53.00;;;;;;5035109;28;87114;-58
2023/08/04 04:08:41;;;;;;;;;;;27.60;53.10;;;;;;5033207;28;87633;-57
2023/08/04 04:11:08;;;;;;;;;;;27.60;53.10;;;;;;5033176;28;88010;-52
2023/08/04 04:13:34;;;;;;;;;;;27.60;53.10;;;;;;5038691;28;87139;-58
2023/08/04 04:15:59;;;;;;;;;;;27.50;53.00;;;;;;5031571;28;87101;-55
2023/08/04 04:18:25;;;;;;;;;;;27.50;53.10;;;;;;5034741;28;88112;-54
2023/08/04 04:20:50;;;;;;;;;;;27.50;53.10;;;;;;5033171;28;87142;-55
2023/08/04 04:23:16;;;;;;;;;;;27.50;53.10;;;;;;5034564;28;88170;-52
2023/08/04 04:25:41;;;;;;;;;;;27.40;53.00;;;;;;5034843;28;88257;-57
2023/08/04 04:28:07;;;;;;;;;;;27.50;53.10;;;;;;5033358;28;88445;-54
2023/08/04 04:30:32;;;;;;;;;;;27.40;53.10;;;;;;5033708;28;88234;-51
2023/08/04 04:32:58;;;;;;;;;;;27.40;53.10;;;;;;5032677;28;87399;-50
2023/08/04 04:35:23;;;;;;;;;;;27.40;53.10;;;;;;5035219;28;87469;-56
2023/08/04 04:37:49;;;;;;;;;;;27.40;53.10;;;;;;5035739;28;87111;-57
2023/08/04 04:40:14;;;;;;;;;;;27.40;53.10;;;;;;5032233;28;87410;-53
2023/08/04 04:42:40;;;;;;;;;;;27.40;53.10;;;;;;5035232;28;87529;-54
2023/08/04 04:45:06;;;;;;;;;;;27.40;53.10;;;;;;5035331;28;87139;-56
2023/08/04 04:47:31;;;;;;;;;;;27.40;53.10;;;;;;5033533;27;87591;-56
2023/08/04 04:49:57;;;;;;;;;;;27.40;53.10;;;;;;5032523;28;88944;-55
2023/08/04 04:52:30;;;;;;;;;;;27.40;53.20;;;;;;5033558;28;87086;-54
2023/08/04 04:54:55;;;;;;;;;;;27.40;53.10;;;;;;5032531;27;87534;-56
2023/08/04 04:57:21;;;;;;;;;;;27.40;53.20;;;;;;5035638;28;88089;-56
2023/08/04 04:59:46;;;;;;;;;;;27.30;53.10;;;;;;5033893;28;87485;-59
2023/08/04 05:02:12;;;;;;;;;;;27.30;53.20;;;;;;5031428;28;88012;-57
2023/08/04 05:04:37;;;;;;;;;;;27.30;53.20;;;;;;5033396;28;87329;-58
2023/08/04 05:07:03;;;;;;;;;;;27.30;53.20;;;;;;5033364;28;86883;-57
2023/08/04 05:09:28;;;;;;;;;;;27.30;53.30;;;;;;5035403;28;88152;-52
2023/08/04 05:11:54;;;;;;;;;;;27.30;53.30;;;;;;5029621;28;87107;-56
2023/08/04 05:14:19;;;;;;;;;;;27.30;53.30;;;;;;5034587;28;87930;-57
2023/08/04 05:16:45;;;;;;;;;;;27.30;53.30;;;;;;5034415;28;88186;-62
2023/08/04 05:19:11;;;;;;;;;;;27.30;53.40;;;;;;5035048;28;87087;-57
2023/08/04 05:21:36;;;;;;;;;;;27.30;53.40;;;;;;5033257;28;88067;-59
2023/08/04 05:24:02;;;;;;;;;;;27.30;53.40;;;;;;5033792;28;87072;-59
2023/08/04 05:26:27;;;;;;;;;;;27.30;53.40;;;;;;5032206;28;87627;-56
2023/08/04 05:28:53;;;;;;;;;;;27.30;53.40;;;;;;5032296;28;88291;-59
2023/08/04 05:31:18;;;;;;;;;;;27.30;53.50;;;;;;5032575;28;86488;-56
2023/08/04 05:33:44;;;;;;;;;;;27.30;53.50;;;;;;5031385;27;87099;-55
2023/08/04 05:36:09;;;;;;;;;;;27.30;53.50;;;;;;5031272;28;88031;-55
2023/08/04 05:38:35;;;;;;;;;;;27.30;53.50;;;;;;5033789;28;88407;-59
2023/08/04 05:41:01;;;;;;;;;;;27.30;53.50;;;;;;5034852;28;87482;-54
2023/08/04 05:43:27;;;;;;;;;;;27.30;53.50;;;;;;5033835;28;87269;-54
2023/08/04 05:45:52;;;;;;;;;;;27.30;53.50;;;;;;5033521;28;87647;-58
2023/08/04 05:48:18;;;;;;;;;;;27.30;53.60;;;;;;5030783;28;87939;-54
2023/08/04 05:50:43;;;;;;;;;;;27.30;53.60;;;;;;5032584;28;87238;-53
2023/08/04 05:53:09;;;;;;;;;;;27.30;53.60;;;;;;5033986;28;87300;-55
2023/08/04 05:55:36;;;;;;;;;;;27.30;53.70;;;;;;5031285;28;87357;-59
2023/08/04 05:58:01;;;;;;;;;;;27.30;53.70;;;;;;5032386;28;88015;-53
2023/08/04 06:00:27;;;;;;;;;;;27.30;53.70;;;;;;5036875;28;87596;-54
2023/08/04 06:02:52;;;;;;;;;;;27.30;53.70;;;;;;5028104;28;88258;-59
2023/08/04 06:05:18;;;;;;;;;;;27.20;53.60;;;;;;5030624;28;88500;-51
2023/08/04 06:07:44;;;;;;;;;;;27.30;53.80;;;;;;5033373;28;87961;-55
2023/08/04 06:10:09;;;;;;;;;;;27.30;53.80;;;;;;5032272;28;87056;-52
2023/08/04 06:12:35;;;;;;;;;;;27.30;53.90;;;;;;5032897;28;89129;-51
2023/08/04 06:15:02;;;;;;;;;;;27.20;53.80;;;;;;5031576;28;88119;-56
2023/08/04 06:17:27;;;;;;;;;;;27.30;53.90;;;;;;5032636;28;87096;-58
2023/08/04 06:19:53;;;;;;;;;;;27.30;53.90;;;;;;5030308;28;87198;-58
2023/08/04 06:22:18;;;;;;;;;;;27.30;54.10;;;;;;5036426;28;87801;-60
2023/08/04 06:24:44;;;;;;;;;;;27.30;54.00;;;;;;5030955;28;87706;-56
2023/08/04 06:27:09;;;;;;;;;;;27.30;54.10;;;;;;5033455;28;89155;-56
2023/08/04 06:29:35;;;;;;;;;;;27.30;54.40;;;;;;5032672;28;87182;-56
2023/08/04 06:32:01;;;;;;;;;;;27.30;54.10;;;;;;5031487;28;87470;-59
2023/08/04 06:34:26;;;;;;;;;;;27.30;54.20;;;;;;5031242;28;88181;-55
2023/08/04 06:36:52;;;;;;;;;;;27.20;54.10;;;;;;5032089;28;86953;-55
2023/08/04 06:39:18;;;;;;;;;;;27.30;54.10;;;;;;5032298;28;86990;-52
2023/08/04 06:41:43;;;;;;;;;;;27.30;54.10;;;;;;5032609;28;87281;-54
2023/08/04 06:44:09;;;;;;;;;;;27.30;54.10;;;;;;5036262;28;86342;-55
2023/08/04 06:46:34;;;;;;;;;;;27.30;54.10;;;;;;5029754;28;87241;-59
2023/08/04 06:49:00;;;;;;;;;;;27.20;53.90;;;;;;5029659;27;87124;-55
2023/08/04 06:51:25;;;;;;;;;;;27.20;54.10;;;;;;5033662;28;87947;-52
2023/08/04 06:53:51;;;;;;;;;;;27.30;54.20;;;;;;5030389;28;88258;-57
2023/08/04 06:56:18;;;;;;;;;;;27.20;54.10;;;;;;5033318;28;87063;-54
2023/08/04 06:58:43;;;;;;;;;;;27.30;54.20;;;;;;5031384;27;87391;-53
2023/08/04 07:01:09;;;;;;;;;;;27.30;54.20;;;;;;5031157;28;87976;-56
2023/08/04 07:03:34;;;;;;;;;;;27.30;54.20;;;;;;5027978;28;87157;-57
2023/08/04 07:06:00;;;;;;;;;;;27.20;54.10;;;;;;5035045;28;87456;-57
2023/08/04 07:08:26;;;;;;;;;;;27.30;54.20;;;;;;5031910;28;86392;-51
2023/08/04 07:10:51;;;;;;;;;;;27.20;54.30;;;;;;5033230;28;86952;-55
2023/08/04 07:13:17;;;;;;;;;;;27.30;54.40;;;;;;5032042;28;88362;-50
2023/08/04 07:15:53;;;;;;;;;;;27.20;54.30;;;;;;5029196;28;88087;-52
2023/08/04 07:18:18;;;;;;;;;;;27.20;54.30;;;;;;5029477;28;88344;-54
2023/08/04 07:20:44;;;;;;;;;;;27.30;54.40;;;;;;5031180;28;87307;-57
2023/08/04 07:23:09;;;;;;;;;;;27.30;54.50;;;;;;5030061;28;87136;-60
2023/08/04 07:25:35;;;;;;;;;;;27.30;54.50;;;;;;5033685;28;87520;-57
2023/08/04 07:28:00;;;;;;;;;;;27.20;54.50;;;;;;5032364;28;87880;-54
2023/08/04 07:30:26;;;;;;;;;;;27.20;54.50;;;;;;5031232;28;87731;-56
2023/08/04 07:32:51;;;;;;;;;;;27.30;54.50;;;;;;5031275;28;87437;-56
2023/08/04 07:35:17;;;;;;;;;;;27.30;54.50;;;;;;5027587;28;87207;-56
2023/08/04 07:37:44;;;;;;;;;;;27.30;54.60;;;;;;5031452;28;87548;-60
2023/08/04 07:40:10;;;;;;;;;;;27.30;54.50;;;;;;5030805;28;89078;-55
2023/08/04 07:42:36;;;;;;;;;;;27.30;54.50;;;;;;5030929;28;87056;-57
2023/08/04 07:45:01;;;;;;;;;;;27.30;54.50;;;;;;5029166;28;87477;-50
2023/08/04 07:47:27;;;;;;;;;;;27.30;54.60;;;;;;5029442;28;89029;-52
2023/08/04 07:49:52;;;;;;;;;;;27.30;54.50;;;;;;5032183;28;87429;-54
2023/08/04 07:52:18;;;;;;;;;;;27.30;54.50;;;;;;5029217;28;88296;-56
2023/08/04 07:54:43;;;;;;;;;;;27.30;54.50;;;;;;5032722;28;87165;-52
2023/08/04 07:57:09;;;;;;;;;;;27.30;54.50;;;;;;5031763;28;87121;-49
2023/08/04 07:59:34;;;;;;;;;;;27.30;54.50;;;;;;5032054;28;88260;-55
2023/08/04 08:02:00;;;;;;;;;;;27.30;54.50;;;;;;5034831;28;87131;-53
2023/08/04 08:04:25;;;;;;;;;;;27.30;54.40;;;;;;5033767;28;87982;-59
2023/08/04 08:06:51;;;;;;;;;;;27.30;54.40;;;;;;5033701;28;88291;-52
2023/08/04 08:09:16;;;;;;;;;;;27.30;54.50;;;;;;5038890;28;87424;-53
2023/08/04 08:11:42;;;;;;;;;;;27.30;54.50;;;;;;5032634;28;89394;-54
2023/08/04 08:14:07;;;;;;;;;;;27.30;54.40;;;;;;5032777;28;87210;-55
2023/08/04 08:16:33;;;;;;;;;;;27.30;54.40;;;;;;5036519;28;87447;-55
2023/08/04 08:18:58;;;;;;;;;;;27.30;54.40;;;;;;5032309;28;88140;-52
2023/08/04 08:21:24;;;;;;;;;;;27.30;54.40;;;;;;5033225;28;86447;-55
2023/08/04 08:23:49;;;;;;;;;;;27.30;54.50;;;;;;5034898;28;87361;-53
2023/08/04 08:26:15;;;;;;;;;;;27.30;55.00;;;;;;5032681;28;90144;-58
2023/08/04 08:28:40;;;;;;;;;;;27.30;54.40;;;;;;5032804;28;88082;-51
2023/08/04 08:31:06;;;;;;;;;;;27.30;54.40;;;;;;5039033;28;88388;-57
2023/08/04 08:33:31;;;;;;;;;;;27.40;54.50;;;;;;5032891;27;87137;-58
2023/08/04 08:35:57;;;;;;;;;;;27.30;54.40;;;;;;5030697;28;88395;-54
2023/08/04 08:38:22;;;;;;;;;;;27.40;54.50;;;;;;5035803;28;88567;-54
2023/08/04 08:40:48;;;;;;;;;;;27.40;54.60;;;;;;5032817;28;87011;-55
2023/08/04 08:43:14;;;;;;;;;;;27.40;54.50;;;;;;5035655;28;87208;-57
2023/08/04 08:45:40;;;;;;;;;;;27.40;54.60;;;;;;5033682;28;89030;-53
2023/08/04 08:48:05;;;;;;;;;;;27.40;54.60;;;;;;5034444;28;87562;-52
2023/08/04 08:50:32;;;;;;;;;;;27.40;54.50;;;;;;5032561;28;87436;-54
2023/08/04 08:53:02;;;;;;;;;;;27.40;54.50;;;;;;5036046;28;88955;-52
2023/08/04 08:55:28;;;;;;;;;;;27.40;54.70;;;;;;5034042;28;88594;-52
2023/08/04 08:57:54;;;;;;;;;;;27.40;54.60;;;;;;5034063;28;87947;-50
2023/08/04 09:00:22;;;;;;;;;;;27.40;54.80;;;;;;5030660;28;87070;-58
2023/08/04 09:02:48;;;;;;;;;;;27.40;54.70;;;;;;5034589;27;88748;-56
2023/08/04 09:05:14;;;;;;;;;;;27.40;54.50;;;;;;5027643;28;88013;-54
2023/08/04 09:07:39;;;;;;;;;;;27.50;55.30;;;;;;5035391;28;87150;-58
2023/08/04 09:10:06;;;;;;;;;;;27.50;54.70;;;;;;5031664;28;87381;-58
2023/08/04 09:12:32;;;;;;;;;;;27.50;54.70;;;;;;5031557;28;87964;-56
2023/08/04 09:14:58;;;;;;;;;;;27.50;54.70;;;;;;5034728;28;87337;-57
2023/08/04 09:17:30;;;;;;;;;;;27.50;54.70;;;;;;5033940;28;88098;-58
2023/08/04 09:19:56;;;;;;;;;;;27.50;54.60;;;;;;5029426;28;87330;-54
2023/08/04 09:22:23;;;;;;;;;;;27.50;54.70;;;;;;5032129;27;87327;-54
2023/08/04 09:24:55;;;;;;;;;;;27.60;54.80;;;;;;5034359;28;88106;-56
2023/08/04 09:27:34;;;;;;;;;;;27.50;54.70;;;;;;5031575;28;87190;-59
2023/08/04 09:30:03;;;;;;;;;;;27.50;54.60;;;;;;5031936;28;87401;-53
2023/08/04 09:32:29;;;;;;;;;;;27.60;54.70;;;;;;5032161;28;89428;-55
2023/08/04 09:34:58;;;;;;;;;;;27.60;54.70;;;;;;5030364;28;86472;-55
2023/08/04 09:37:24;;;;;;;;;;;27.60;54.70;;;;;;5034861;28;87020;-53
2023/08/04 09:39:49;;;;;;;;;;;27.60;54.70;;;;;;5035005;28;87089;-55
2023/08/04 09:42:15;;;;;;;;;;;27.60;54.60;;;;;;5030777;28;87938;-56
2023/08/04 09:44:40;;;;;;;;;;;27.60;54.70;;;;;;5034157;28;88740;-54
2023/08/04 09:47:06;;;;;;;;;;;27.60;54.70;;;;;;5033031;28;87709;-54
2023/08/04 09:49:31;;;;;;;;;;;27.70;54.80;;;;;;5030421;28;88633;-57
2023/08/04 09:51:57;;;;;;;;;;;27.70;54.90;;;;;;5031526;28;88103;-52
2023/08/04 09:54:22;;;;;;;;;;;27.70;55.10;;;;;;5033155;28;87183;-55
2023/08/04 09:56:50;;;;;;;;;;;27.70;54.90;;;;;;5032641;28;87361;-56
2023/08/04 09:59:17;;;;;;;;;;;27.70;55.10;;;;;;5036463;28;87221;-55
2023/08/04 10:01:43;;;;;;;;;;;27.70;54.80;;;;;;5033041;28;87726;-53
2023/08/04 10:04:09;;;;;;;;;;;27.80;55.50;;;;;;5030655;28;88254;-56
2023/08/04 10:06:37;;;;;;;;;;;27.80;54.80;;;;;;5031108;28;88122;-53
2023/08/04 10:09:03;;;;;;;;;;;27.80;54.80;;;;;;5034040;28;88266;-57
2023/08/04 10:11:29;;;;;;;;;;;27.80;54.80;;;;;;5030319;28;88288;-58
2023/08/04 10:13:56;;;;;;;;;;;27.90;54.70;;;;;;5030900;28;87335;-55
2023/08/04 10:16:32;;;;;;;;;;;27.90;54.70;;;;;;5033277;28;87418;-55
2023/08/04 10:19:02;;;;;;;;;;;27.90;55.30;;;;;;5035663;28;88012;-54
2023/08/04 10:21:32;;;;;;;;;;;27.90;54.70;;;;;;5028442;28;88812;-54
2023/08/04 10:23:58;;;;;;;;;;;27.90;54.70;;;;;;5031134;28;88906;-55
2023/08/04 10:26:24;;;;;;;;;;;27.90;54.70;;;;;;5033655;28;87129;-55
2023/08/04 10:29:05;;;;;;;;;;;28.00;54.70;;;;;;5030369;28;87809;-52
2023/08/04 10:31:47;;;;;;;;;;;28.00;54.70;;;;;;5030374;28;89153;-54
2023/08/04 10:34:18;;;;;;;;;;;28.00;54.70;;;;;;5029119;28;88041;-55
2023/08/04 10:36:53;;;;;;;;;;;28.00;54.70;;;;;;5032518;28;87882;-52
2023/08/04 10:39:27;;;;;;;;;;;28.00;54.70;;;;;;5030952;28;89303;-52
2023/08/04 10:41:52;;;;;;;;;;;28.00;54.70;;;;;;5035306;28;87177;-57
2023/08/04 10:44:18;;;;;;;;;;;28.00;54.70;;;;;;5030669;28;88467;-57
2023/08/04 10:46:47;;;;;;;;;;;28.10;54.70;;;;;;5031331;28;87164;-55
2023/08/04 10:49:12;;;;;;;;;;;28.10;54.70;;;;;;5033120;28;87359;-54
2023/08/04 10:51:38;;;;;;;;;;;28.10;54.70;;;;;;5028278;28;88246;-57
2023/08/04 10:54:03;;;;;;;;;;;28.10;54.90;;;;;;5030466;28;87052;-55
2023/08/04 10:56:29;;;;;;;;;;;28.10;54.90;;;;;;5029851;28;87927;-57
2023/08/04 10:58:55;;;;;;;;;;;28.10;54.90;;;;;;5033371;28;88572;-56
2023/08/04 11:01:21;;;;;;;;;;;28.20;54.80;;;;;;5032012;28;87242;-55
2023/08/04 11:03:47;;;;;;;;;;;28.20;54.70;;;;;;5035413;28;87608;-55
2023/08/04 11:06:13;;;;;;;;;;;28.20;54.70;;;;;;5029182;28;88999;-55
2023/08/04 11:08:38;;;;;;;;;;;28.20;54.60;;;;;;5032051;28;87496;-54
2023/08/04 11:11:05;;;;;;;;;;;28.30;54.70;;;;;;5031804;28;89571;-54
2023/08/04 11:13:31;;;;;;;;;;;28.30;54.60;;;;;;5031919;28;86315;-56
2023/08/04 11:15:56;;;;;;;;;;;28.30;54.70;;;;;;5031457;28;88483;-57
2023/08/04 11:18:26;;;;;;;;;;;28.30;54.80;;;;;;5027253;28;89266;-57
2023/08/04 11:20:51;;;;;;;;;;;28.40;54.90;;;;;;5030654;28;88037;-56
2023/08/04 11:23:28;;;;;;;;;;;28.40;55.00;;;;;;5029688;28;88492;-57
2023/08/04 11:25:54;;;;;;;;;;;28.40;55.00;;;;;;5033629;28;89096;-58
2023/08/04 11:28:20;;;;;;;;;;;28.40;55.00;;;;;;5032415;27;87034;-57
2023/08/04 11:30:45;;;;;;;;;;;28.50;55.10;;;;;;5030261;28;88115;-56
2023/08/04 11:33:10;;;;;;;;;;;28.50;55.00;;;;;;5032608;28;87109;-52
2023/08/04 11:35:36;;;;;;;;;;;28.50;54.80;;;;;;5032043;28;87453;-53
2023/08/04 11:38:04;;;;;;;;;;;28.50;54.70;;;;;;5036210;28;87433;-52
2023/08/04 11:40:30;;;;;;;;;;;28.50;54.80;;;;;;5033753;28;87617;-52
2023/08/04 11:42:57;;;;;;;;;;;28.50;54.70;;;;;;5036297;28;87437;-53
2023/08/04 11:45:22;;;;;;;;;;;28.60;54.80;;;;;;5032512;28;90309;-54
2023/08/04 11:47:48;;;;;;;;;;;28.60;54.70;;;;;;5035967;28;87089;-56
2023/08/04 11:50:15;;;;;;;;;;;28.60;54.80;;;;;;5032866;28;88403;-55
2023/08/04 11:52:41;;;;;;;;;;;28.60;54.80;;;;;;5033797;28;87270;-54
2023/08/04 11:55:07;;;;;;;;;;;28.60;54.70;;;;;;5034920;27;88531;-52
2023/08/04 11:57:32;;;;;;;;;;;28.70;54.80;;;;;;5033681;28;88146;-50
2023/08/04 11:59:58;;;;;;;;;;;28.70;54.90;;;;;;5036038;28;87093;-57
2023/08/04 12:02:24;;;;;;;;;;;28.80;54.80;;;;;;5035750;28;89268;-50
2023/08/04 12:05:09;;;;;;;;;;;28.70;54.70;;;;;;5031960;28;87853;-56
2023/08/04 12:07:35;;;;;;;;;;;28.70;54.70;;;;;;5035803;28;87269;-54
2023/08/04 12:10:00;;;;;;;;;;;28.80;54.70;;;;;;5036825;28;88453;-56
2023/08/04 12:12:36;;;;;;;;;;;28.80;54.60;;;;;;5035309;28;87196;-57
2023/08/04 12:15:01;;;;;;;;;;;28.80;54.70;;;;;;5034792;28;88758;-56
2023/08/04 12:17:40;;;;;;;;;;;28.80;54.60;;;;;;5035327;28;87637;-54
2023/08/04 12:20:07;;;;;;;;;;;28.90;54.70;;;;;;5032070;28;87177;-54
2023/08/04 12:22:39;;;;;;;;;;;28.90;54.70;;;;;;5032724;28;88683;-52
2023/08/04 12:25:05;;;;;;;;;;;28.90;54.60;;;;;;5032159;28;88142;-50
2023/08/04 12:27:30;;;;;;;;;;;28.90;54.60;;;;;;5036113;28;86406;-53
2023/08/04 12:29:56;;;;;;;;;;;28.90;54.60;;;;;;5035641;27;88134;-56
2023/08/04 12:32:22;;;;;;;;;;;28.90;54.50;;;;;;5034990;28;87058;-59
2023/08/04 12:34:47;;;;;;;;;;;29.00;54.50;;;;;;5032417;28;87969;-53
2023/08/04 12:37:13;;;;;;;;;;;29.00;54.50;;;;;;5031893;28;87667;-55
2023/08/04 12:39:38;;;;;;;;;;;29.00;54.50;;;;;;5035136;28;87543;-56
2023/08/04 12:42:04;;;;;;;;;;;29.00;54.40;;;;;;5033177;28;87522;-54
2023/08/04 12:44:30;;;;;;;;;;;29.00;54.40;;;;;;5034188;28;87944;-54
2023/08/04 12:46:56;;;;;;;;;;;29.10;54.60;;;;;;5032496;28;87098;-52
2023/08/04 12:49:21;;;;;;;;;;;29.10;54.50;;;;;;5030914;28;89835;-51
2023/08/04 12:51:47;;;;;;;;;;;29.10;54.50;;;;;;5032863;28;87209;-58
2023/08/04 12:54:12;;;;;;;;;;;29.20;54.50;;;;;;5035223;28;87072;-53
2023/08/04 12:56:38;;;;;;;;;;;29.20;54.60;;;;;;5033169;28;87944;-56
2023/08/04 12:59:03;;;;;;;;;;;29.20;54.50;;;;;;5033485;28;88121;-52
2023/08/04 13:01:29;;;;;;;;;;;29.20;54.50;;;;;;5034409;27;87262;-53
2023/08/04 13:03:55;;;;;;;;;;;29.20;54.50;;;;;;5029989;28;89416;-55
2023/08/04 13:06:20;;;;;;;;;;;29.20;54.40;;;;;;5031710;28;87118;-56
2023/08/04 13:08:45;;;;;;;;;;;29.20;54.50;;;;;;5034668;28;87661;-54
2023/08/04 13:11:11;;;;;;;;;;;29.30;54.50;;;;;;5031596;28;88111;-56
2023/08/04 13:13:36;;;;;;;;;;;29.30;54.50;;;;;;5038217;28;87242;-58
2023/08/04 13:16:02;;;;;;;;;;;29.30;54.50;;;;;;5032537;28;86529;-53
2023/08/04 13:18:27;;;;;;;;;;;29.30;54.40;;;;;;5033005;28;87162;-56
2023/08/04 13:20:53;;;;;;;;;;;29.30;54.40;;;;;;5031961;28;87556;-56
2023/08/04 13:23:18;;;;;;;;;;;29.40;54.40;;;;;;5031108;28;89183;-60
2023/08/04 13:25:44;;;;;;;;;;;29.40;54.50;;;;;;5034051;28;87152;-54
2023/08/04 13:28:10;;;;;;;;;;;29.40;54.40;;;;;;5032289;28;88259;-52
2023/08/04 13:30:35;;;;;;;;;;;29.40;54.30;;;;;;5034311;28;89415;-57
2023/08/04 13:33:01;;;;;;;;;;;29.50;53.80;;;;;;5031567;28;87092;-57
2023/08/04 13:35:27;;;;;;;;;;;29.40;54.30;;;;;;5034819;28;87561;-56
2023/08/04 13:37:53;;;;;;;;;;;29.50;54.20;;;;;;5033310;28;87432;-52
2023/08/04 13:40:19;;;;;;;;;;;29.50;54.20;;;;;;5032437;28;87950;-52
2023/08/04 13:42:44;;;;;;;;;;;29.50;54.20;;;;;;5033789;28;88996;-56
2023/08/04 13:45:10;;;;;;;;;;;29.50;54.20;;;;;;5032791;28;87146;-56
2023/08/04 13:47:37;;;;;;;;;;;29.50;54.10;;;;;;5032635;28;87975;-54
2023/08/04 13:50:02;;;;;;;;;;;29.60;54.10;;;;;;5031240;28;88319;-57
2023/08/04 13:52:28;;;;;;;;;;;29.60;54.00;;;;;;5031796;28;87176;-54
2023/08/04 13:54:53;;;;;;;;;;;29.60;53.90;;;;;;5031834;28;87476;-56
2023/08/04 13:57:19;;;;;;;;;;;29.60;53.90;;;;;;5035966;28;88061;-52
2023/08/04 13:59:44;;;;;;;;;;;29.60;53.90;;;;;;5030728;28;87429;-57
2023/08/04 14:02:10;;;;;;;;;;;29.70;53.90;;;;;;5034588;28;88417;-55
2023/08/04 14:04:36;;;;;;;;;;;29.60;53.70;;;;;;5030864;28;86649;-52
2023/08/04 14:07:02;;;;;;;;;;;29.70;53.70;;;;;;5028933;28;87185;-54
2023/08/04 14:09:27;;;;;;;;;;;29.60;53.60;;;;;;5031566;28;88229;-59